Time;durP1;ratioP1;P1;durP2;ratioP2;P2;SDS_P1;SDS_P2;PMS_P1;PMS_P2;Temp;Humidity;BMP_temperature;BMP_pressure;BME280_temperature;BME280_humidity;BME280_pressure;Samples;Min_cycle;Max_cycle;Signal;HPM_P1;HPM_P2
2022/07/30 00:00:53;;;;;;;4.67;4.07;;;;;;;;;;5062070;28;20207;-38
2022/07/30 00:03:22;;;;;;;4.23;3.63;;;;;;;;;;5067838;28;20201;-34
2022/07/30 00:05:49;;;;;;;5.13;4.20;;;;;;;;;;5058379;28;20216;-38
2022/07/30 00:08:16;;;;;;;5.10;4.07;;;;;;;;;;5065390;28;20224;-37
2022/07/30 00:10:43;;;;;;;5.30;4.10;;;;;;;;;;5063886;28;20205;-37
2022/07/30 00:13:10;;;;;;;4.40;3.73;;;;;;;;;;5071155;28;20287;-37
2022/07/30 00:15:38;;;;;;;4.07;3.63;;;;;;;;;;5062993;28;20210;-39
2022/07/30 00:18:05;;;;;;;4.13;3.83;;;;;;;;;;5070224;28;20443;-41
2022/07/30 00:20:33;;;;;;;3.63;3.33;;;;;;;;;;5063008;28;20491;-35
2022/07/30 00:23:03;;;;;;;4.03;3.73;;;;;;;;;;5062010;28;20288;-39
2022/07/30 00:25:30;;;;;;;3.73;3.50;;;;;;;;;;5066625;28;20228;-36
2022/07/30 00:27:57;;;;;;;4.23;3.93;;;;;;;;;;5412238;22;20231;-39
2022/07/30 00:30:25;;;;;;;3.60;3.30;;;;;;;;;;5042713;28;20235;-42
2022/07/30 00:32:52;;;;;;;4.43;3.70;;;;;;;;;;5043867;28;20206;-43
2022/07/30 00:35:19;;;;;;;3.80;3.47;;;;;;;;;;5046012;28;20213;-43
2022/07/30 00:37:47;;;;;;;4.00;3.70;;;;;;;;;;5061745;28;20234;-41
2022/07/30 00:40:15;;;;;;;3.83;3.50;;;;;;;;;;5062916;28;20209;-43
2022/07/30 00:42:43;;;;;;;6.70;3.40;;;;;;;;;;5065627;28;20211;-44
2022/07/30 00:45:10;;;;;;;3.57;3.30;;;;;;;;;;5061648;28;20215;-43
2022/07/30 00:47:38;;;;;;;5.43;3.60;;;;;;;;;;5064150;28;20228;-42
2022/07/30 00:50:06;;;;;;;3.47;3.17;;;;;;;;;;5065016;28;20219;-40
2022/07/30 00:52:34;;;;;;;3.30;3.10;;;;;;;;;;5058980;28;20211;-43
2022/07/30 00:55:03;;;;;;;3.07;2.87;;;;;;;;;;5060977;28;20585;-40
2022/07/30 00:57:30;;;;;;;3.50;2.80;;;;;;;;;;5065333;28;20225;-42
2022/07/30 00:59:57;;;;;;;3.50;2.70;;;;;;;;;;5061030;28;20223;-42
2022/07/30 01:02:24;;;;;;;3.20;3.00;;;;;;;;;;5060796;28;20224;-42
2022/07/30 01:04:51;;;;;;;3.70;3.40;;;;;;;;;;5066907;28;20215;-41
2022/07/30 01:07:19;;;;;;;5.80;3.53;;;;;;;;;;5067302;28;20227;-40
2022/07/30 01:09:46;;;;;;;3.00;2.80;;;;;;;;;;5063208;28;20211;-44
2022/07/30 01:12:21;;;;;;;3.93;3.27;;;;;;;;;;5065324;28;20207;-43
2022/07/30 01:14:48;;;;;;;4.00;3.30;;;;;;;;;;5061367;28;20208;-41
2022/07/30 01:17:16;;;;;;;5.43;3.43;;;;;;;;;;5068375;28;20329;-41
2022/07/30 01:19:51;;;;;;;4.93;3.87;;;;;;;;;;5060391;28;20208;-37
2022/07/30 01:22:22;;;;;;;4.60;3.70;;;;;;;;;;5061430;28;20238;-42
2022/07/30 01:24:55;;;;;;;4.73;3.47;;;;;;;;;;5064517;28;20290;-41
2022/07/30 01:27:24;;;;;;;3.73;3.23;;;;;;;;;;5067363;28;20318;-39
2022/07/30 01:29:52;;;;;;;3.60;3.30;;;;;;;;;;5061673;28;20212;-41
2022/07/30 01:32:21;;;;;;;3.37;3.10;;;;;;;;;;5068185;28;20211;-41
2022/07/30 01:34:49;;;;;;;3.83;3.10;;;;;;;;;;5067528;28;20207;-43
2022/07/30 01:37:17;;;;;;;3.87;3.40;;;;;;;;;;5067730;28;20222;-41
2022/07/30 01:39:44;;;;;;;3.73;3.37;;;;;;;;;;5068668;28;20200;-45
2022/07/30 01:42:12;;;;;;;7.20;3.50;;;;;;;;;;5066662;28;20211;-41
2022/07/30 01:44:42;;;;;;;5.03;3.90;;;;;;;;;;5067942;28;20223;-44
2022/07/30 01:47:10;;;;;;;3.80;3.50;;;;;;;;;;5067624;28;20231;-38
2022/07/30 01:49:38;;;;;;;4.00;3.50;;;;;;;;;;5071867;28;20239;-44
2022/07/30 01:52:06;;;;;;;5.47;3.40;;;;;;;;;;5064775;28;20214;-38
2022/07/30 01:54:33;;;;;;;7.83;3.87;;;;;;;;;;5070968;28;20228;-42
2022/07/30 01:57:01;;;;;;;4.27;3.60;;;;;;;;;;5074539;28;20271;-38
2022/07/30 01:59:29;;;;;;;3.77;3.47;;;;;;;;;;5063351;28;20223;-42
2022/07/30 02:01:57;;;;;;;3.20;2.90;;;;;;;;;;5068368;28;20430;-42
2022/07/30 02:04:26;;;;;;;3.20;2.90;;;;;;;;;;5072788;28;20197;-41
2022/07/30 02:07:08;;;;;;;3.40;3.20;;;;;;;;;;5062186;28;20232;-41
2022/07/30 02:09:36;;;;;;;4.10;2.63;;;;;;;;;;5067475;28;20210;-41
2022/07/30 02:14:54;;;;;;;4.63;2.97;;;;;;;;;;5060347;28;20205;-40
2022/07/30 02:17:24;;;;;;;3.73;2.83;;;;;;;;;;5064074;28;20234;-44
2022/07/30 02:19:53;;;;;;;3.97;2.93;;;;;;;;;;5054277;28;20209;-40
2022/07/30 02:22:21;;;;;;;3.93;3.03;;;;;;;;;;5058700;28;20203;-42
2022/07/30 02:24:48;;;;;;;3.20;3.00;;;;;;;;;;5072083;28;20253;-41
2022/07/30 02:27:17;;;;;;;3.20;3.00;;;;;;;;;;5071127;28;20231;-41
2022/07/30 02:29:44;;;;;;;4.87;3.27;;;;;;;;;;5056723;28;20213;-42
2022/07/30 02:32:14;;;;;;;3.10;2.80;;;;;;;;;;5058155;28;20215;-41
2022/07/30 02:34:43;;;;;;;3.70;3.40;;;;;;;;;;5065542;28;20253;-43
2022/07/30 02:37:13;;;;;;;6.47;3.27;;;;;;;;;;5064286;28;20223;-40
2022/07/30 02:39:42;;;;;;;4.33;3.13;;;;;;;;;;5071705;28;20191;-43
2022/07/30 02:42:10;;;;;;;4.13;3.67;;;;;;;;;;5068756;28;20207;-41
2022/07/30 02:44:38;;;;;;;4.30;3.00;;;;;;;;;;5061748;28;20218;-40
2022/07/30 02:47:05;;;;;;;3.70;3.13;;;;;;;;;;5069382;28;20230;-42
2022/07/30 02:49:35;;;;;;;3.33;3.03;;;;;;;;;;5065811;28;20201;-41
2022/07/30 02:52:07;;;;;;;3.37;3.13;;;;;;;;;;5050709;28;20218;-41
2022/07/30 02:54:37;;;;;;;4.20;3.27;;;;;;;;;;5057359;28;20231;-43
2022/07/30 02:57:05;;;;;;;4.67;3.07;;;;;;;;;;5064882;28;20216;-42
2022/07/30 02:59:33;;;;;;;4.13;3.20;;;;;;;;;;5065304;28;20210;-41
2022/07/30 03:02:01;;;;;;;4.83;3.40;;;;;;;;;;5069335;28;20206;-44
2022/07/30 03:04:29;;;;;;;4.80;3.70;;;;;;;;;;5067416;28;20213;-42
2022/07/30 03:06:56;;;;;;;3.53;3.23;;;;;;;;;;5054112;28;20226;-39
2022/07/30 03:09:25;;;;;;;3.90;3.10;;;;;;;;;;5064431;28;20611;-42
2022/07/30 03:11:53;;;;;;;4.20;3.53;;;;;;;;;;5051293;28;20203;-43
2022/07/30 03:14:20;;;;;;;3.10;2.80;;;;;;;;;;5050643;28;20208;-43
2022/07/30 03:16:52;;;;;;;4.23;3.13;;;;;;;;;;5056221;28;20234;-43
2022/07/30 03:19:20;;;;;;;3.80;3.20;;;;;;;;;;5051426;28;20207;-41
2022/07/30 03:21:49;;;;;;;3.27;3.00;;;;;;;;;;5054110;28;20207;-42
2022/07/30 03:24:17;;;;;;;4.57;3.60;;;;;;;;;;5059189;28;20218;-40
2022/07/30 03:26:46;;;;;;;2.80;2.60;;;;;;;;;;5067241;28;20228;-41
2022/07/30 03:29:14;;;;;;;3.43;2.63;;;;;;;;;;5068691;28;20297;-40
2022/07/30 03:31:41;;;;;;;2.80;2.60;;;;;;;;;;5059170;28;20195;-40
2022/07/30 03:34:09;;;;;;;3.17;2.87;;;;;;;;;;5069679;28;20213;-42
2022/07/30 03:36:36;;;;;;;3.10;2.90;;;;;;;;;;5063636;28;20229;-40
2022/07/30 03:39:04;;;;;;;6.70;2.87;;;;;;;;;;5069274;28;20209;-43
2022/07/30 03:41:31;;;;;;;4.83;3.27;;;;;;;;;;5051380;28;20210;-40
2022/07/30 03:44:02;;;;;;;3.40;3.10;;;;;;;;;;5055997;28;20207;-45
2022/07/30 03:46:30;;;;;;;5.90;2.90;;;;;;;;;;5063732;28;20222;-44
2022/07/30 03:48:57;;;;;;;3.53;3.10;;;;;;;;;;5063180;28;20587;-42
2022/07/30 03:51:25;;;;;;;4.13;3.20;;;;;;;;;;5060965;28;20214;-42
2022/07/30 03:53:52;;;;;;;3.40;2.90;;;;;;;;;;5058800;28;20205;-42
2022/07/30 03:56:19;;;;;;;3.10;2.80;;;;;;;;;;5061354;28;20210;-42
2022/07/30 03:58:46;;;;;;;3.50;3.20;;;;;;;;;;5051583;28;20741;-43
2022/07/30 04:01:15;;;;;;;3.40;3.07;;;;;;;;;;5052473;28;20211;-40
2022/07/30 04:03:42;;;;;;;3.93;3.03;;;;;;;;;;5070407;28;20213;-40
2022/07/30 04:06:09;;;;;;;3.30;3.10;;;;;;;;;;5059471;28;20241;-43
2022/07/30 04:08:36;;;;;;;3.20;3.00;;;;;;;;;;5058079;28;20235;-39
2022/07/30 04:11:04;;;;;;;5.53;3.17;;;;;;;;;;5062790;28;20644;-41
2022/07/30 04:13:31;;;;;;;3.33;2.90;;;;;;;;;;5056956;28;20194;-39
2022/07/30 04:16:01;;;;;;;2.83;2.63;;;;;;;;;;5064433;28;20207;-39
2022/07/30 04:18:31;;;;;;;3.33;3.03;;;;;;;;;;5059275;28;20224;-42
2022/07/30 04:21:00;;;;;;;4.13;3.10;;;;;;;;;;5058893;28;20253;-38
2022/07/30 04:23:27;;;;;;;3.27;2.93;;;;;;;;;;5064522;28;20208;-41
2022/07/30 04:25:55;;;;;;;3.33;3.07;;;;;;;;;;5055869;28;20203;-41
2022/07/30 04:28:22;;;;;;;3.33;3.13;;;;;;;;;;5051875;28;20245;-40
2022/07/30 04:30:50;;;;;;;5.53;3.50;;;;;;;;;;5063689;28;20204;-42
2022/07/30 04:33:17;;;;;;;3.70;3.33;;;;;;;;;;5064210;28;20201;-42
2022/07/30 04:35:45;;;;;;;7.10;3.10;;;;;;;;;;5063021;28;20199;-42
2022/07/30 04:38:13;;;;;;;4.70;2.80;;;;;;;;;;5051910;28;20280;-42
2022/07/30 04:40:40;;;;;;;3.17;2.80;;;;;;;;;;5058779;28;20197;-43
2022/07/30 04:43:08;;;;;;;3.10;2.80;;;;;;;;;;5072448;28;20210;-43
2022/07/30 04:45:35;;;;;;;2.63;2.47;;;;;;;;;;5064321;28;20739;-42
2022/07/30 04:48:02;;;;;;;3.53;2.73;;;;;;;;;;5061924;28;20223;-42
2022/07/30 04:50:29;;;;;;;2.97;2.77;;;;;;;;;;5062228;28;20271;-37
2022/07/30 04:52:58;;;;;;;5.20;3.00;;;;;;;;;;5070827;28;20206;-42
2022/07/30 04:55:26;;;;;;;3.00;2.80;;;;;;;;;;5063521;28;20190;-43
2022/07/30 04:57:54;;;;;;;3.10;2.80;;;;;;;;;;5072676;28;20225;-43
2022/07/30 05:00:21;;;;;;;3.93;3.10;;;;;;;;;;5061314;28;20221;-42
2022/07/30 05:02:49;;;;;;;4.60;2.57;;;;;;;;;;5058963;28;20224;-41
2022/07/30 05:05:17;;;;;;;5.50;3.07;;;;;;;;;;5056918;28;20356;-42
2022/07/30 05:07:44;;;;;;;3.33;3.10;;;;;;;;;;5066011;28;20213;-44
2022/07/30 05:10:13;;;;;;;4.40;3.07;;;;;;;;;;5063078;28;20208;-41
2022/07/30 05:12:40;;;;;;;2.97;2.77;;;;;;;;;;5070991;28;20655;-38
2022/07/30 05:15:09;;;;;;;5.20;3.13;;;;;;;;;;5065529;28;20218;-43
2022/07/30 05:17:36;;;;;;;4.47;3.40;;;;;;;;;;5051473;28;20223;-44
2022/07/30 05:20:03;;;;;;;7.83;3.47;;;;;;;;;;5058718;28;20195;-39
2022/07/30 05:22:31;;;;;;;5.43;3.07;;;;;;;;;;5057037;28;20199;-43
2022/07/30 05:24:58;;;;;;;3.53;3.23;;;;;;;;;;5062076;28;20222;-44
2022/07/30 05:27:26;;;;;;;3.40;3.10;;;;;;;;;;5058771;28;20227;-38
2022/07/30 05:29:53;;;;;;;3.50;3.17;;;;;;;;;;5050963;28;20184;-40
2022/07/30 05:32:21;;;;;;;4.93;3.50;;;;;;;;;;5065292;28;20237;-41
2022/07/30 05:34:48;;;;;;;4.73;3.43;;;;;;;;;;5062607;28;20207;-43
2022/07/30 05:37:15;;;;;;;5.13;3.30;;;;;;;;;;5054180;28;20216;-44
2022/07/30 05:39:43;;;;;;;3.80;3.20;;;;;;;;;;5071041;28;20201;-39
2022/07/30 05:42:10;;;;;;;4.53;3.43;;;;;;;;;;5070036;28;20294;-38
2022/07/30 05:44:38;;;;;;;4.03;3.73;;;;;;;;;;5068786;28;20206;-38
2022/07/30 05:47:05;;;;;;;5.33;3.50;;;;;;;;;;5057845;28;20233;-41
2022/07/30 05:49:32;;;;;;;3.97;3.03;;;;;;;;;;5065547;28;20223;-40
2022/07/30 05:51:59;;;;;;;4.17;3.57;;;;;;;;;;5049397;28;20204;-42
2022/07/30 05:54:26;;;;;;;3.50;3.20;;;;;;;;;;5056085;28;20201;-41
2022/07/30 05:56:54;;;;;;;5.60;4.00;;;;;;;;;;5071171;28;20223;-39
2022/07/30 05:59:21;;;;;;;4.10;3.57;;;;;;;;;;5057235;28;20282;-37
2022/07/30 06:01:49;;;;;;;3.57;3.27;;;;;;;;;;5066668;28;20212;-37
2022/07/30 06:04:16;;;;;;;3.93;3.53;;;;;;;;;;5051063;28;20211;-42
2022/07/30 06:06:43;;;;;;;4.93;3.77;;;;;;;;;;5056169;28;20220;-40
2022/07/30 06:09:10;;;;;;;3.57;3.27;;;;;;;;;;5054434;28;20229;-44
2022/07/30 06:11:38;;;;;;;3.30;3.00;;;;;;;;;;5062400;28;20203;-40
2022/07/30 06:14:05;;;;;;;3.40;3.20;;;;;;;;;;5058984;28;20287;-41
2022/07/30 06:16:32;;;;;;;3.83;3.53;;;;;;;;;;5049664;28;20221;-43
2022/07/30 06:19:00;;;;;;;3.33;3.03;;;;;;;;;;5054404;28;20211;-40
2022/07/30 06:21:28;;;;;;;4.53;4.13;;;;;;;;;;5058946;28;20200;-41
2022/07/30 06:23:55;;;;;;;4.17;3.57;;;;;;;;;;5056192;28;20629;-42
2022/07/30 06:26:22;;;;;;;3.97;3.67;;;;;;;;;;5063603;28;20217;-43
2022/07/30 06:31:18;;;;;;;6.20;3.73;;;;;;;;;;5065881;28;20344;-41
2022/07/30 06:33:47;;;;;;;4.23;3.60;;;;;;;;;;5072167;28;20210;-42
2022/07/30 06:36:16;;;;;;;4.90;4.33;;;;;;;;;;5057417;28;20205;-33
2022/07/30 06:38:43;;;;;;;4.33;3.90;;;;;;;;;;5051794;28;20201;-39
2022/07/30 06:41:11;;;;;;;5.43;3.80;;;;;;;;;;5066527;28;20216;-39
2022/07/30 06:43:38;;;;;;;3.93;3.63;;;;;;;;;;5053921;28;20205;-39
2022/07/30 06:46:05;;;;;;;6.93;3.70;;;;;;;;;;5061422;28;20216;-41
2022/07/30 06:48:32;;;;;;;8.55;3.38;;;;;;;;;;5065828;28;20232;-37
2022/07/30 06:50:59;;;;;;;3.28;3.00;;;;;;;;;;5053885;28;20212;-41
2022/07/30 06:53:28;;;;;;;3.88;3.25;;;;;;;;;;5062914;28;20205;-41
2022/07/30 06:55:55;;;;;;;4.72;3.25;;;;;;;;;;5062995;28;20206;-37
2022/07/30 06:58:22;;;;;;;4.72;3.30;;;;;;;;;;5065891;28;20241;-39
2022/07/30 07:00:49;;;;;;;6.43;3.75;;;;;;;;;;5063625;28;20211;-39
2022/07/30 07:03:17;;;;;;;4.50;3.45;;;;;;;;;;5059532;28;20217;-37
2022/07/30 07:05:44;;;;;;;5.03;3.33;;;;;;;;;;5055017;28;20202;-37
2022/07/30 07:08:11;;;;;;;4.07;3.70;;;;;;;;;;5068320;28;20227;-38
2022/07/30 07:10:39;;;;;;;5.80;3.60;;;;;;;;;;5058852;28;20197;-39
2022/07/30 07:13:07;;;;;;;5.57;3.47;;;;;;;;;;5052120;28;20212;-39
2022/07/30 07:15:34;;;;;;;5.45;3.45;;;;;;;;;;5063102;28;20192;-42
2022/07/30 07:18:02;;;;;;;4.07;3.47;;;;;;;;;;5061580;28;20228;-39
2022/07/30 07:20:29;;;;;;;6.05;3.38;;;;;;;;;;5058592;28;20205;-36
2022/07/30 07:22:56;;;;;;;6.05;3.38;;;;;;;;;;5060964;28;20558;-40
2022/07/30 07:25:23;;;;;;;4.32;3.35;;;;;;;;;;5062733;28;20215;-41
2022/07/30 07:27:52;;;;;;;4.78;3.70;;;;;;;;;;5060350;28;20233;-36
2022/07/30 07:30:19;;;;;;;3.45;3.15;;;;;;;;;;5060060;28;20301;-36
2022/07/30 07:32:46;;;;;;;3.40;3.05;;;;;;;;;;5062562;28;20200;-38
2022/07/30 07:35:13;;;;;;;7.32;3.50;;;;;;;;;;5059219;28;20209;-40
2022/07/30 07:37:40;;;;;;;4.35;3.45;;;;;;;;;;5057182;28;20699;-38
2022/07/30 07:40:08;;;;;;;4.93;3.53;;;;;;;;;;5060445;28;20212;-37
2022/07/30 07:42:35;;;;;;;4.20;3.17;;;;;;;;;;5052428;28;20270;-39
2022/07/30 07:45:03;;;;;;;3.55;3.25;;;;;;;;;;5050711;28;20214;-41
2022/07/30 07:47:30;;;;;;;7.43;3.90;;;;;;;;;;5070970;28;20229;-39
2022/07/30 07:49:57;;;;;;;4.05;3.58;;;;;;;;;;5053747;28;20201;-41
2022/07/30 07:52:25;;;;;;;5.63;3.90;;;;;;;;;;5061929;28;20208;-37
2022/07/30 07:54:52;;;;;;;5.40;3.80;;;;;;;;;;5060280;28;20210;-38
2022/07/30 07:57:19;;;;;;;4.55;4.07;;;;;;;;;;5059258;28;20226;-41
2022/07/30 07:59:46;;;;;;;4.90;3.95;;;;;;;;;;5052946;28;20204;-42
2022/07/30 08:02:14;;;;;;;4.38;3.50;;;;;;;;;;5062482;28;20213;-40
2022/07/30 08:04:41;;;;;;;4.60;3.58;;;;;;;;;;5055456;28;20205;-36
2022/07/30 08:07:08;;;;;;;5.00;4.00;;;;;;;;;;5060798;28;20255;-41
2022/07/30 08:09:36;;;;;;;8.45;3.50;;;;;;;;;;5067353;28;20220;-41
2022/07/30 08:12:03;;;;;;;5.10;3.38;;;;;;;;;;5071194;28;20208;-40
2022/07/30 08:14:30;;;;;;;5.40;3.80;;;;;;;;;;5070653;28;20211;-41
2022/07/30 08:16:57;;;;;;;4.57;3.75;;;;;;;;;;5052955;28;20297;-40
2022/07/30 08:19:25;;;;;;;4.93;3.42;;;;;;;;;;5057556;28;20194;-40
2022/07/30 08:21:52;;;;;;;5.55;3.33;;;;;;;;;;5048011;28;20205;-41
2022/07/30 08:24:19;;;;;;;4.05;3.03;;;;;;;;;;5060714;28;20212;-39
2022/07/30 08:26:47;;;;;;;5.00;3.78;;;;;;;;;;5058967;28;20229;-41
2022/07/30 08:29:14;;;;;;;6.65;3.67;;;;;;;;;;5049230;28;20226;-40
2022/07/30 08:31:41;;;;;;;4.97;3.15;;;;;;;;;;5060628;28;20208;-41
2022/07/30 08:34:08;;;;;;;4.35;3.13;;;;;;;;;;5058994;28;20212;-36
2022/07/30 08:36:36;;;;;;;3.80;3.30;;;;;;;;;;5063125;28;20232;-41
2022/07/30 08:39:03;;;;;;;3.38;2.97;;;;;;;;;;5066708;28;20220;-38
2022/07/30 08:41:31;;;;;;;3.92;2.65;;;;;;;;;;5067780;28;20208;-39
2022/07/30 08:44:00;;;;;;;4.18;2.60;;;;;;;;;;5054799;28;20209;-37
2022/07/30 08:46:29;;;;;;;4.38;2.50;;;;;;;;;;5061718;28;20227;-36
2022/07/30 08:48:57;;;;;;;2.63;2.42;;;;;;;;;;5067714;28;20235;-42
2022/07/30 08:51:25;;;;;;;3.00;2.40;;;;;;;;;;5058399;28;20208;-37
2022/07/30 08:53:55;;;;;;;6.15;3.20;;;;;;;;;;5059479;28;20209;-36
2022/07/30 08:56:22;;;;;;;2.30;2.10;;;;;;;;;;5060297;28;20207;-41
2022/07/30 08:58:50;;;;;;;5.22;2.65;;;;;;;;;;5052186;28;20209;-39
2022/07/30 09:01:17;;;;;;;4.25;2.90;;;;;;;;;;5051912;28;20195;-39
2022/07/30 09:03:44;;;;;;;3.90;2.55;;;;;;;;;;5054952;28;20207;-39
2022/07/30 09:06:12;;;;;;;4.70;2.95;;;;;;;;;;5057717;28;20209;-41
2022/07/30 09:08:39;;;;;;;5.20;2.55;;;;;;;;;;5056215;28;20250;-39
2022/07/30 09:11:07;;;;;;;3.92;2.30;;;;;;;;;;5060445;28;20205;-41
2022/07/30 09:13:36;;;;;;;3.00;2.50;;;;;;;;;;5057474;28;20208;-35
2022/07/30 09:16:03;;;;;;;3.22;2.10;;;;;;;;;;5063306;28;20243;-41
2022/07/30 09:18:32;;;;;;;2.80;2.40;;;;;;;;;;5055673;28;20216;-36
2022/07/30 09:20:59;;;;;;;4.18;2.97;;;;;;;;;;5048926;28;20213;-39
2022/07/30 09:23:27;;;;;;;5.65;3.05;;;;;;;;;;5061848;28;20202;-37
2022/07/30 09:25:55;;;;;;;4.03;2.40;;;;;;;;;;5061439;28;20204;-34
2022/07/30 09:28:30;;;;;;;2.78;2.10;;;;;;;;;;5055055;28;20355;-40
2022/07/30 09:30:57;;;;;;;4.15;2.72;;;;;;;;;;5048387;28;20720;-37
2022/07/30 09:33:37;;;;;;;2.95;2.40;;;;;;;;;;5057351;28;20207;-37
2022/07/30 09:36:05;;;;;;;3.25;2.55;;;;;;;;;;5063210;28;20213;-34
2022/07/30 09:38:42;;;;;;;4.43;3.00;;;;;;;;;;5072245;28;20192;-41
2022/07/30 09:41:11;;;;;;;3.80;2.55;;;;;;;;;;5059076;28;20215;-40
2022/07/30 09:43:43;;;;;;;5.22;2.42;;;;;;;;;;5058464;28;20196;-39
2022/07/30 09:46:11;;;;;;;3.08;2.00;;;;;;;;;;5057434;28;20200;-37
2022/07/30 09:49:02;;;;;;;2.53;2.33;;;;;;;;;;5068996;28;20215;-37
2022/07/30 09:51:38;;;;;;;3.30;2.45;;;;;;;;;;5062092;28;20504;-37
2022/07/30 09:54:05;;;;;;;3.42;2.15;;;;;;;;;;5058923;28;20203;-36
2022/07/30 09:56:33;;;;;;;3.35;2.20;;;;;;;;;;5058548;28;20303;-38
2022/07/30 09:59:01;;;;;;;3.67;2.05;;;;;;;;;;5063420;28;20201;-36
2022/07/30 10:01:29;;;;;;;4.30;2.00;;;;;;;;;;5060143;28;20564;-38
2022/07/30 10:03:56;;;;;;;6.97;2.38;;;;;;;;;;5069499;28;20203;-39
2022/07/30 10:06:32;;;;;;;5.80;1.88;;;;;;;;;;5062644;28;20202;-34
2022/07/30 10:09:00;;;;;;;1.92;1.80;;;;;;;;;;5058218;28;20312;-41
2022/07/30 10:11:29;;;;;;;2.17;1.98;;;;;;;;;;5062487;28;20199;-41
2022/07/30 10:13:58;;;;;;;3.65;2.10;;;;;;;;;;5054882;28;20290;-38
2022/07/30 10:16:27;;;;;;;1.98;1.73;;;;;;;;;;5067279;28;20199;-39
2022/07/30 10:18:56;;;;;;;1.80;1.70;;;;;;;;;;5060151;28;20186;-37
2022/07/30 10:21:23;;;;;;;2.63;2.13;;;;;;;;;;5061117;28;20208;-40
2022/07/30 10:23:51;;;;;;;4.43;1.92;;;;;;;;;;5060085;28;20198;-41
2022/07/30 10:26:18;;;;;;;2.50;2.30;;;;;;;;;;5061379;28;20204;-35
2022/07/30 10:28:46;;;;;;;1.98;1.88;;;;;;;;;;5065616;28;20327;-39
2022/07/30 10:31:14;;;;;;;2.38;2.20;;;;;;;;;;5068694;28;20273;-34
2022/07/30 10:33:42;;;;;;;2.33;1.80;;;;;;;;;;5061589;28;20193;-33
2022/07/30 10:36:11;;;;;;;2.30;2.10;;;;;;;;;;5060825;28;20212;-39
2022/07/30 10:38:39;;;;;;;2.55;2.15;;;;;;;;;;5064084;28;20204;-37
2022/07/30 10:41:09;;;;;;;7.15;2.53;;;;;;;;;;5060146;28;20292;-37
2022/07/30 10:43:51;;;;;;;4.00;2.15;;;;;;;;;;5060209;28;20189;-37
2022/07/30 10:46:25;;;;;;;4.53;1.83;;;;;;;;;;5061757;28;20241;-36
2022/07/30 10:48:54;;;;;;;3.50;2.08;;;;;;;;;;5064256;28;20218;-38
2022/07/30 10:51:22;;;;;;;2.50;2.20;;;;;;;;;;5059958;28;20221;-42
2022/07/30 10:53:49;;;;;;;5.38;2.33;;;;;;;;;;5059463;28;20264;-41
2022/07/30 10:56:18;;;;;;;5.03;2.08;;;;;;;;;;5062923;28;20292;-37
2022/07/30 10:58:58;;;;;;;1.52;1.42;;;;;;;;;;5059395;28;20204;-39
2022/07/30 11:01:26;;;;;;;3.10;1.88;;;;;;;;;;5063505;28;20261;-36
2022/07/30 11:04:08;;;;;;;3.92;1.85;;;;;;;;;;5060536;28;20194;-40
2022/07/30 11:06:36;;;;;;;1.67;1.58;;;;;;;;;;5058446;28;20214;-40
2022/07/30 11:09:23;;;;;;;3.20;1.80;;;;;;;;;;5058375;28;20244;-36
2022/07/30 11:11:51;;;;;;;2.53;1.75;;;;;;;;;;5063224;28;20205;-38
2022/07/30 11:14:18;;;;;;;5.60;1.98;;;;;;;;;;5052452;28;20206;-35
2022/07/30 11:17:01;;;;;;;5.93;2.00;;;;;;;;;;5062083;28;20230;-35
2022/07/30 11:19:28;;;;;;;1.63;1.52;;;;;;;;;;5064217;28;20185;-39
2022/07/30 11:22:13;;;;;;;1.98;1.88;;;;;;;;;;5060187;28;20214;-40
2022/07/30 11:24:45;;;;;;;2.85;1.70;;;;;;;;;;5042714;28;20194;-35
2022/07/30 11:27:34;;;;;;;1.83;1.55;;;;;;;;;;5063491;28;20302;-38
2022/07/30 11:30:02;;;;;;;2.72;1.70;;;;;;;;;;5062238;28;20228;-39
2022/07/30 11:32:31;;;;;;;3.30;1.80;;;;;;;;;;5066782;28;20247;-35
2022/07/30 11:35:20;;;;;;;3.78;1.70;;;;;;;;;;5061669;28;20187;-35
2022/07/30 11:38:01;;;;;;;3.90;1.80;;;;;;;;;;5061476;28;20249;-37
2022/07/30 11:40:30;;;;;;;2.25;1.70;;;;;;;;;;5065787;28;20197;-38
2022/07/30 11:43:21;;;;;;;4.95;1.70;;;;;;;;;;5058788;28;20218;-42
2022/07/30 11:45:49;;;;;;;1.77;1.67;;;;;;;;;;5061301;28;20366;-40
2022/07/30 11:48:18;;;;;;;3.13;1.98;;;;;;;;;;5062229;28;20229;-44
2022/07/30 11:50:46;;;;;;;3.00;1.77;;;;;;;;;;5061241;28;20223;-41
2022/07/30 11:53:15;;;;;;;1.77;1.60;;;;;;;;;;5067832;28;20198;-37
2022/07/30 11:55:46;;;;;;;2.50;1.52;;;;;;;;;;5065350;28;20517;-37
2022/07/30 11:58:23;;;;;;;1.88;1.60;;;;;;;;;;5060915;28;20230;-40
2022/07/30 12:00:50;;;;;;;2.15;1.70;;;;;;;;;;5065562;28;20653;-35
2022/07/30 12:03:18;;;;;;;4.72;1.80;;;;;;;;;;5061326;28;20199;-41
2022/07/30 12:05:46;;;;;;;2.63;1.77;;;;;;;;;;5059012;28;20206;-40
2022/07/30 12:08:14;;;;;;;2.45;1.60;;;;;;;;;;5050934;28;20214;-40
2022/07/30 12:10:43;;;;;;;1.50;1.40;;;;;;;;;;5052714;28;20229;-41
2022/07/30 12:13:12;;;;;;;2.42;1.35;;;;;;;;;;5063558;28;20217;-35
2022/07/30 12:15:41;;;;;;;1.40;1.30;;;;;;;;;;5063480;28;20199;-41
2022/07/30 12:18:10;;;;;;;1.92;1.58;;;;;;;;;;5050475;28;20328;-37
2022/07/30 12:20:37;;;;;;;2.05;1.45;;;;;;;;;;5051674;28;20294;-39
2022/07/30 12:23:10;;;;;;;4.07;1.70;;;;;;;;;;5055010;28;20209;-36
2022/07/30 12:25:38;;;;;;;2.33;1.77;;;;;;;;;;5061720;28;20188;-38
2022/07/30 12:28:05;;;;;;;2.05;1.48;;;;;;;;;;5053316;28;20239;-39
2022/07/30 12:33:02;;;;;;;1.80;1.55;;;;;;;;;;5040321;28;20224;-38
2022/07/30 12:35:44;;;;;;;2.53;1.50;;;;;;;;;;5033956;28;20200;-40
2022/07/30 12:38:11;;;;;;;3.28;1.60;;;;;;;;;;5053472;28;20225;-41
2022/07/30 12:40:51;;;;;;;1.63;1.52;;;;;;;;;;5052338;28;20277;-41
2022/07/30 12:43:48;;;;;;;1.50;1.40;;;;;;;;;;5052220;28;20194;-44
2022/07/30 12:46:16;;;;;;;2.30;1.40;;;;;;;;;;5046281;28;20198;-38
2022/07/30 12:48:52;;;;;;;6.63;1.70;;;;;;;;;;5057586;28;20230;-37
2022/07/30 12:51:19;;;;;;;2.35;1.60;;;;;;;;;;5041683;28;20226;-37
2022/07/30 12:53:46;;;;;;;1.45;1.35;;;;;;;;;;5051732;28;20219;-39
2022/07/30 12:56:13;;;;;;;3.83;1.55;;;;;;;;;;5072264;28;20200;-42
2022/07/30 12:58:41;;;;;;;2.13;1.60;;;;;;;;;;5072387;28;20215;-44
2022/07/30 13:01:09;;;;;;;2.05;1.20;;;;;;;;;;5052999;28;20217;-42
2022/07/30 13:03:40;;;;;;;4.32;2.00;;;;;;;;;;5057663;28;20204;-43
2022/07/30 13:06:13;;;;;;;3.28;1.60;;;;;;;;;;5054174;28;20201;-41
2022/07/30 13:08:48;;;;;;;1.40;1.30;;;;;;;;;;5049549;28;20196;-40
2022/07/30 13:11:16;;;;;;;1.23;1.13;;;;;;;;;;5059445;28;20257;-35
2022/07/30 13:13:43;;;;;;;2.25;1.40;;;;;;;;;;5051921;28;20216;-39
2022/07/30 13:16:10;;;;;;;2.30;1.40;;;;;;;;;;5040385;28;20688;-43
2022/07/30 13:18:39;;;;;;;2.78;1.40;;;;;;;;;;5053694;28;20590;-43
2022/07/30 13:21:08;;;;;;;1.45;1.38;;;;;;;;;;5050651;28;20221;-38
2022/07/30 13:23:36;;;;;;;3.47;1.10;;;;;;;;;;5042591;28;20204;-40
2022/07/30 13:26:03;;;;;;;2.20;1.60;;;;;;;;;;5067134;28;20207;-43
2022/07/30 13:28:32;;;;;;;1.55;1.45;;;;;;;;;;5051775;28;20235;-40
2022/07/30 13:30:59;;;;;;;1.20;1.13;;;;;;;;;;5050217;28;20329;-44
2022/07/30 13:33:26;;;;;;;1.98;1.20;;;;;;;;;;5059536;28;20214;-41
2022/07/30 13:35:53;;;;;;;1.58;1.25;;;;;;;;;;5054309;28;20213;-40
2022/07/30 13:38:22;;;;;;;1.23;1.10;;;;;;;;;;5054582;28;20224;-41
2022/07/30 13:40:50;;;;;;;1.60;1.30;;;;;;;;;;5055506;28;20204;-43
2022/07/30 13:43:17;;;;;;;1.38;1.20;;;;;;;;;;5037027;28;20212;-40
2022/07/30 13:45:44;;;;;;;1.67;1.50;;;;;;;;;;5050067;28;20269;-39
2022/07/30 13:48:12;;;;;;;1.65;1.55;;;;;;;;;;5051888;28;20233;-40
2022/07/30 13:50:39;;;;;;;3.05;1.50;;;;;;;;;;5046277;28;20235;-37
2022/07/30 13:53:07;;;;;;;1.20;1.15;;;;;;;;;;5056091;28;20213;-41
2022/07/30 13:55:34;;;;;;;3.45;1.17;;;;;;;;;;5041299;28;20207;-41
2022/07/30 13:58:03;;;;;;;1.83;1.20;;;;;;;;;;5056819;28;20231;-41
2022/07/30 14:00:32;;;;;;;2.83;1.40;;;;;;;;;;5043915;28;20394;-39
2022/07/30 14:03:00;;;;;;;3.70;1.40;;;;;;;;;;5053446;28;20202;-38
2022/07/30 14:05:27;;;;;;;2.40;1.40;;;;;;;;;;5046183;28;20490;-40
2022/07/30 14:07:54;;;;;;;1.63;1.08;;;;;;;;;;5051830;28;20227;-43
2022/07/30 14:10:22;;;;;;;1.88;1.17;;;;;;;;;;5054882;28;20221;-43
2022/07/30 14:12:49;;;;;;;2.90;1.40;;;;;;;;;;5053993;28;20216;-43
2022/07/30 14:15:17;;;;;;;1.27;1.27;;;;;;;;;;5046518;28;20281;-41
2022/07/30 14:17:44;;;;;;;1.40;1.30;;;;;;;;;;5053227;28;20235;-42
2022/07/30 14:20:12;;;;;;;1.52;1.25;;;;;;;;;;5058125;28;20214;-40
2022/07/30 14:22:39;;;;;;;3.08;1.55;;;;;;;;;;5058032;28;20538;-39
2022/07/30 14:25:06;;;;;;;3.72;1.50;;;;;;;;;;5059800;28;20205;-42
2022/07/30 14:27:39;;;;;;;1.23;1.23;;;;;;;;;;5054742;28;20232;-43
2022/07/30 14:30:08;;;;;;;1.30;1.20;;;;;;;;;;5045403;28;20221;-41
2022/07/30 14:32:36;;;;;;;1.65;1.52;;;;;;;;;;5051078;28;20211;-41
2022/07/30 14:35:04;;;;;;;1.23;1.20;;;;;;;;;;5053636;28;20242;-38
2022/07/30 14:37:32;;;;;;;1.63;1.38;;;;;;;;;;5055439;28;20228;-40
2022/07/30 14:39:59;;;;;;;1.80;1.42;;;;;;;;;;5051217;28;20296;-41
2022/07/30 14:42:26;;;;;;;2.05;1.50;;;;;;;;;;5050558;28;20205;-38
2022/07/30 14:44:53;;;;;;;1.77;1.13;;;;;;;;;;5047018;28;20208;-41
2022/07/30 14:47:20;;;;;;;1.55;1.45;;;;;;;;;;5047903;28;20227;-43
2022/07/30 14:49:49;;;;;;;3.90;1.45;;;;;;;;;;5047745;28;20224;-43
2022/07/30 14:52:16;;;;;;;3.55;1.17;;;;;;;;;;5040709;28;20268;-40
2022/07/30 14:54:43;;;;;;;1.30;1.20;;;;;;;;;;5036963;28;20309;-44
2022/07/30 14:57:11;;;;;;;1.25;1.25;;;;;;;;;;5050165;28;20233;-42
2022/07/30 14:59:38;;;;;;;2.00;1.40;;;;;;;;;;5056253;28;20553;-39